sensor_id;sensor_type;location;lat;lon;timestamp;P1;durP1;ratioP1;P2;durP2;ratioP2
9115;SDS011;4593;53.652;10.168;2022-08-06T00:01:39;1.83;;;1.70;;
9115;SDS011;4593;53.652;10.168;2022-08-06T00:04:05;2.10;;;1.80;;
9115;SDS011;4593;53.652;10.168;2022-08-06T00:06:31;2.07;;;1.70;;
9115;SDS011;4593;53.652;10.168;2022-08-06T00:08:57;2.00;;;1.80;;
9115;SDS011;4593;53.652;10.168;2022-08-06T00:11:23;2.90;;;2.00;;
9115;SDS011;4593;53.652;10.168;2022-08-06T00:13:49;1.70;;;1.60;;
9115;SDS011;4593;53.652;10.168;2022-08-06T00:16:15;1.73;;;1.63;;
9115;SDS011;4593;53.652;10.168;2022-08-06T00:18:41;4.20;;;1.90;;
9115;SDS011;4593;53.652;10.168;2022-08-06T00:21:08;2.10;;;1.73;;
9115;SDS011;4593;53.652;10.168;2022-08-06T00:23:34;1.70;;;1.60;;
9115;SDS011;4593;53.652;10.168;2022-08-06T00:26:00;2.23;;;1.90;;
9115;SDS011;4593;53.652;10.168;2022-08-06T00:28:26;4.43;;;1.77;;
9115;SDS011;4593;53.652;10.168;2022-08-06T00:30:52;1.97;;;1.80;;
9115;SDS011;4593;53.652;10.168;2022-08-06T00:33:18;1.60;;;1.50;;
9115;SDS011;4593;53.652;10.168;2022-08-06T00:35:44;2.23;;;1.70;;
9115;SDS011;4593;53.652;10.168;2022-08-06T00:38:10;1.77;;;1.67;;
9115;SDS011;4593;53.652;10.168;2022-08-06T00:40:36;2.50;;;2.10;;
9115;SDS011;4593;53.652;10.168;2022-08-06T00:43:03;3.40;;;2.10;;
9115;SDS011;4593;53.652;10.168;2022-08-06T00:45:33;1.93;;;1.80;;
9115;SDS011;4593;53.652;10.168;2022-08-06T00:47:59;1.80;;;1.70;;
9115;SDS011;4593;53.652;10.168;2022-08-06T00:50:26;2.43;;;2.23;;
9115;SDS011;4593;53.652;10.168;2022-08-06T00:52:52;1.80;;;1.70;;
9115;SDS011;4593;53.652;10.168;2022-08-06T00:55:18;2.63;;;1.90;;
9115;SDS011;4593;53.652;10.168;2022-08-06T00:57:45;1.90;;;1.80;;
9115;SDS011;4593;53.652;10.168;2022-08-06T01:00:11;3.27;;;2.27;;
9115;SDS011;4593;53.652;10.168;2022-08-06T01:02:58;1.80;;;1.70;;
9115;SDS011;4593;53.652;10.168;2022-08-06T01:05:24;1.70;;;1.60;;
9115;SDS011;4593;53.652;10.168;2022-08-06T01:07:49;2.00;;;1.90;;
9115;SDS011;4593;53.652;10.168;2022-08-06T01:10:15;5.10;;;1.93;;
9115;SDS011;4593;53.652;10.168;2022-08-06T01:12:41;1.80;;;1.70;;
9115;SDS011;4593;53.652;10.168;2022-08-06T01:15:07;1.87;;;1.67;;
9115;SDS011;4593;53.652;10.168;2022-08-06T01:23:07;1.70;;;1.60;;
9115;SDS011;4593;53.652;10.168;2022-08-06T01:28:10;2.13;;;1.77;;
9115;SDS011;4593;53.652;10.168;2022-08-06T01:30:42;2.83;;;2.03;;
9115;SDS011;4593;53.652;10.168;2022-08-06T01:33:14;3.53;;;1.80;;
9115;SDS011;4593;53.652;10.168;2022-08-06T01:35:44;1.70;;;1.60;;
9115;SDS011;4593;53.652;10.168;2022-08-06T01:38:23;1.87;;;1.77;;
9115;SDS011;4593;53.652;10.168;2022-08-06T01:40:55;1.90;;;1.80;;
9115;SDS011;4593;53.652;10.168;2022-08-06T01:43:22;1.90;;;1.70;;
9115;SDS011;4593;53.652;10.168;2022-08-06T01:45:50;1.80;;;1.70;;
9115;SDS011;4593;53.652;10.168;2022-08-06T01:48:18;1.60;;;1.50;;
9115;SDS011;4593;53.652;10.168;2022-08-06T01:50:47;3.20;;;1.80;;
9115;SDS011;4593;53.652;10.168;2022-08-06T01:53:15;2.87;;;1.80;;
9115;SDS011;4593;53.652;10.168;2022-08-06T01:55:42;1.70;;;1.60;;
9115;SDS011;4593;53.652;10.168;2022-08-06T01:58:11;3.73;;;2.00;;
9115;SDS011;4593;53.652;10.168;2022-08-06T02:00:39;2.20;;;1.80;;
9115;SDS011;4593;53.652;10.168;2022-08-06T02:03:09;2.00;;;1.80;;
9115;SDS011;4593;53.652;10.168;2022-08-06T02:05:39;3.43;;;1.83;;
9115;SDS011;4593;53.652;10.168;2022-08-06T02:08:06;1.80;;;1.70;;
9115;SDS011;4593;53.652;10.168;2022-08-06T02:10:36;2.13;;;1.90;;
9115;SDS011;4593;53.652;10.168;2022-08-06T02:13:03;1.67;;;1.57;;
9115;SDS011;4593;53.652;10.168;2022-08-06T02:15:30;1.90;;;1.80;;
9115;SDS011;4593;53.652;10.168;2022-08-06T02:17:59;1.83;;;1.60;;
9115;SDS011;4593;53.652;10.168;2022-08-06T02:20:29;1.83;;;1.73;;
9115;SDS011;4593;53.652;10.168;2022-08-06T02:22:57;2.00;;;1.90;;
9115;SDS011;4593;53.652;10.168;2022-08-06T02:25:25;1.80;;;1.70;;
9115;SDS011;4593;53.652;10.168;2022-08-06T02:27:52;1.93;;;1.80;;
9115;SDS011;4593;53.652;10.168;2022-08-06T02:30:19;2.23;;;1.90;;
9115;SDS011;4593;53.652;10.168;2022-08-06T02:32:45;1.80;;;1.70;;
9115;SDS011;4593;53.652;10.168;2022-08-06T02:35:11;1.90;;;1.80;;
9115;SDS011;4593;53.652;10.168;2022-08-06T02:37:46;1.90;;;1.80;;
9115;SDS011;4593;53.652;10.168;2022-08-06T02:40:16;2.20;;;2.10;;
9115;SDS011;4593;53.652;10.168;2022-08-06T02:42:54;7.83;;;2.03;;
9115;SDS011;4593;53.652;10.168;2022-08-06T02:45:29;2.00;;;1.90;;
9115;SDS011;4593;53.652;10.168;2022-08-06T02:48:12;2.07;;;1.97;;
9115;SDS011;4593;53.652;10.168;2022-08-06T02:50:39;2.27;;;2.10;;
9115;SDS011;4593;53.652;10.168;2022-08-06T02:53:06;2.27;;;1.60;;
9115;SDS011;4593;53.652;10.168;2022-08-06T02:55:34;3.53;;;1.70;;
9115;SDS011;4593;53.652;10.168;2022-08-06T02:58:07;2.50;;;1.93;;
9115;SDS011;4593;53.652;10.168;2022-08-06T03:00:36;2.00;;;1.90;;
9115;SDS011;4593;53.652;10.168;2022-08-06T03:03:04;1.80;;;1.70;;
9115;SDS011;4593;53.652;10.168;2022-08-06T03:05:32;2.17;;;1.97;;
9115;SDS011;4593;53.652;10.168;2022-08-06T03:07:59;2.17;;;2.00;;
9115;SDS011;4593;53.652;10.168;2022-08-06T03:10:26;2.03;;;1.93;;
9115;SDS011;4593;53.652;10.168;2022-08-06T03:12:53;1.97;;;1.87;;
9115;SDS011;4593;53.652;10.168;2022-08-06T03:15:20;2.30;;;2.10;;
9115;SDS011;4593;53.652;10.168;2022-08-06T03:17:48;1.87;;;1.77;;
9115;SDS011;4593;53.652;10.168;2022-08-06T03:20:16;2.20;;;2.00;;
9115;SDS011;4593;53.652;10.168;2022-08-06T03:22:44;2.00;;;1.90;;
9115;SDS011;4593;53.652;10.168;2022-08-06T03:25:12;2.77;;;2.17;;
9115;SDS011;4593;53.652;10.168;2022-08-06T03:27:38;1.97;;;1.77;;
9115;SDS011;4593;53.652;10.168;2022-08-06T03:30:06;2.03;;;1.93;;
9115;SDS011;4593;53.652;10.168;2022-08-06T03:32:33;1.97;;;1.87;;
9115;SDS011;4593;53.652;10.168;2022-08-06T03:35:00;2.20;;;1.83;;
9115;SDS011;4593;53.652;10.168;2022-08-06T03:37:28;1.83;;;1.73;;
9115;SDS011;4593;53.652;10.168;2022-08-06T03:39:56;2.47;;;2.27;;
9115;SDS011;4593;53.652;10.168;2022-08-06T03:42:27;2.40;;;2.07;;
9115;SDS011;4593;53.652;10.168;2022-08-06T03:44:52;2.40;;;2.20;;
9115;SDS011;4593;53.652;10.168;2022-08-06T03:47:20;2.13;;;2.03;;
9115;SDS011;4593;53.652;10.168;2022-08-06T03:49:53;2.70;;;1.80;;
9115;SDS011;4593;53.652;10.168;2022-08-06T03:52:23;3.97;;;1.97;;
9115;SDS011;4593;53.652;10.168;2022-08-06T03:54:52;2.30;;;2.10;;
9115;SDS011;4593;53.652;10.168;2022-08-06T03:57:20;2.27;;;2.07;;
9115;SDS011;4593;53.652;10.168;2022-08-06T03:59:47;2.27;;;2.07;;
9115;SDS011;4593;53.652;10.168;2022-08-06T04:02:16;2.30;;;2.20;;
9115;SDS011;4593;53.652;10.168;2022-08-06T04:04:44;2.30;;;1.97;;
9115;SDS011;4593;53.652;10.168;2022-08-06T04:07:12;3.67;;;2.37;;
9115;SDS011;4593;53.652;10.168;2022-08-06T04:09:39;2.27;;;2.07;;
9115;SDS011;4593;53.652;10.168;2022-08-06T04:12:07;3.37;;;1.80;;
9115;SDS011;4593;53.652;10.168;2022-08-06T04:14:33;2.20;;;2.00;;
9115;SDS011;4593;53.652;10.168;2022-08-06T04:17:00;2.30;;;2.10;;
9115;SDS011;4593;53.652;10.168;2022-08-06T04:19:28;1.87;;;1.77;;
9115;SDS011;4593;53.652;10.168;2022-08-06T04:21:55;2.10;;;1.90;;
9115;SDS011;4593;53.652;10.168;2022-08-06T04:24:21;2.03;;;1.90;;
9115;SDS011;4593;53.652;10.168;2022-08-06T04:26:48;2.37;;;2.17;;
9115;SDS011;4593;53.652;10.168;2022-08-06T04:29:18;1.90;;;1.80;;
9115;SDS011;4593;53.652;10.168;2022-08-06T04:31:46;3.33;;;2.20;;
9115;SDS011;4593;53.652;10.168;2022-08-06T04:34:17;2.27;;;1.90;;
9115;SDS011;4593;53.652;10.168;2022-08-06T04:36:44;6.90;;;2.30;;
9115;SDS011;4593;53.652;10.168;2022-08-06T04:39:10;2.50;;;2.20;;
9115;SDS011;4593;53.652;10.168;2022-08-06T04:41:36;3.13;;;1.90;;
9115;SDS011;4593;53.652;10.168;2022-08-06T04:44:02;2.30;;;2.10;;
9115;SDS011;4593;53.652;10.168;2022-08-06T04:46:28;2.07;;;1.87;;
9115;SDS011;4593;53.652;10.168;2022-08-06T04:51:25;2.17;;;2.00;;
9115;SDS011;4593;53.652;10.168;2022-08-06T04:53:51;2.30;;;2.10;;
9115;SDS011;4593;53.652;10.168;2022-08-06T04:56:16;2.10;;;2.00;;
9115;SDS011;4593;53.652;10.168;2022-08-06T04:58:43;2.23;;;2.03;;
9115;SDS011;4593;53.652;10.168;2022-08-06T05:01:09;1.93;;;1.80;;
9115;SDS011;4593;53.652;10.168;2022-08-06T05:03:35;2.10;;;2.00;;
9115;SDS011;4593;53.652;10.168;2022-08-06T05:06:05;2.17;;;1.90;;
9115;SDS011;4593;53.652;10.168;2022-08-06T05:08:41;2.10;;;2.00;;
9115;SDS011;4593;53.652;10.168;2022-08-06T05:11:13;2.10;;;2.00;;
9115;SDS011;4593;53.652;10.168;2022-08-06T05:13:42;2.10;;;2.00;;
9115;SDS011;4593;53.652;10.168;2022-08-06T05:16:09;7.30;;;2.50;;
9115;SDS011;4593;53.652;10.168;2022-08-06T05:18:49;2.40;;;2.20;;
9115;SDS011;4593;53.652;10.168;2022-08-06T05:21:20;2.43;;;2.17;;
9115;SDS011;4593;53.652;10.168;2022-08-06T05:23:49;2.57;;;2.30;;
9115;SDS011;4593;53.652;10.168;2022-08-06T05:26:15;2.57;;;2.37;;
9115;SDS011;4593;53.652;10.168;2022-08-06T05:28:42;2.43;;;2.20;;
9115;SDS011;4593;53.652;10.168;2022-08-06T05:31:08;3.97;;;2.63;;
9115;SDS011;4593;53.652;10.168;2022-08-06T05:33:35;2.70;;;2.50;;
9115;SDS011;4593;53.652;10.168;2022-08-06T05:36:01;3.63;;;2.40;;
9115;SDS011;4593;53.652;10.168;2022-08-06T05:38:29;3.03;;;2.23;;
9115;SDS011;4593;53.652;10.168;2022-08-06T05:40:56;2.50;;;2.30;;
9115;SDS011;4593;53.652;10.168;2022-08-06T05:43:22;3.67;;;2.13;;
9115;SDS011;4593;53.652;10.168;2022-08-06T05:45:49;2.47;;;2.27;;
9115;SDS011;4593;53.652;10.168;2022-08-06T05:48:19;2.57;;;2.37;;
9115;SDS011;4593;53.652;10.168;2022-08-06T05:50:50;4.30;;;2.00;;
9115;SDS011;4593;53.652;10.168;2022-08-06T05:53:22;3.37;;;2.10;;
9115;SDS011;4593;53.652;10.168;2022-08-06T05:55:58;2.37;;;2.17;;
9115;SDS011;4593;53.652;10.168;2022-08-06T05:58:33;5.63;;;2.20;;
9115;SDS011;4593;53.652;10.168;2022-08-06T06:01:04;2.20;;;2.00;;
9115;SDS011;4593;53.652;10.168;2022-08-06T06:03:32;2.43;;;2.23;;
9115;SDS011;4593;53.652;10.168;2022-08-06T06:06:00;2.27;;;2.10;;
9115;SDS011;4593;53.652;10.168;2022-08-06T06:08:26;2.00;;;1.90;;
9115;SDS011;4593;53.652;10.168;2022-08-06T06:10:53;2.23;;;2.03;;
9115;SDS011;4593;53.652;10.168;2022-08-06T06:13:22;2.83;;;1.93;;
9115;SDS011;4593;53.652;10.168;2022-08-06T06:15:51;1.87;;;1.77;;
9115;SDS011;4593;53.652;10.168;2022-08-06T06:34:00;3.47;;;1.97;;
9115;SDS011;4593;53.652;10.168;2022-08-06T06:36:34;3.30;;;1.60;;
9115;SDS011;4593;53.652;10.168;2022-08-06T06:44:35;1.60;;;1.50;;
9115;SDS011;4593;53.652;10.168;2022-08-06T06:49:51;1.63;;;1.50;;
9115;SDS011;4593;53.652;10.168;2022-08-06T06:52:24;1.73;;;1.63;;
9115;SDS011;4593;53.652;10.168;2022-08-06T06:55:04;1.90;;;1.60;;
9115;SDS011;4593;53.652;10.168;2022-08-06T06:57:35;1.67;;;1.57;;
9115;SDS011;4593;53.652;10.168;2022-08-06T07:00:05;1.70;;;1.60;;
9115;SDS011;4593;53.652;10.168;2022-08-06T07:02:33;1.90;;;1.60;;
9115;SDS011;4593;53.652;10.168;2022-08-06T07:05:03;1.93;;;1.50;;
9115;SDS011;4593;53.652;10.168;2022-08-06T07:07:33;2.20;;;1.60;;
9115;SDS011;4593;53.652;10.168;2022-08-06T07:09:59;2.13;;;1.47;;
9115;SDS011;4593;53.652;10.168;2022-08-06T07:12:27;2.83;;;1.67;;
9115;SDS011;4593;53.652;10.168;2022-08-06T07:14:54;1.47;;;1.40;;
9115;SDS011;4593;53.652;10.168;2022-08-06T07:17:22;1.70;;;1.50;;
9115;SDS011;4593;53.652;10.168;2022-08-06T07:19:50;2.50;;;1.63;;
9115;SDS011;4593;53.652;10.168;2022-08-06T07:22:18;1.50;;;1.40;;
9115;SDS011;4593;53.652;10.168;2022-08-06T07:24:46;2.17;;;1.50;;
9115;SDS011;4593;53.652;10.168;2022-08-06T07:27:14;1.50;;;1.40;;
9115;SDS011;4593;53.652;10.168;2022-08-06T07:29:40;1.80;;;1.30;;
9115;SDS011;4593;53.652;10.168;2022-08-06T07:32:09;2.27;;;1.40;;
9115;SDS011;4593;53.652;10.168;2022-08-06T07:34:36;1.50;;;1.40;;
9115;SDS011;4593;53.652;10.168;2022-08-06T07:37:02;1.50;;;1.40;;
9115;SDS011;4593;53.652;10.168;2022-08-06T07:39:29;1.20;;;1.20;;
9115;SDS011;4593;53.652;10.168;2022-08-06T07:41:59;4.10;;;1.47;;
9115;SDS011;4593;53.652;10.168;2022-08-06T07:44:30;1.50;;;1.40;;
9115;SDS011;4593;53.652;10.168;2022-08-06T07:46:58;1.70;;;1.60;;
9115;SDS011;4593;53.652;10.168;2022-08-06T07:49:29;2.30;;;1.30;;
9115;SDS011;4593;53.652;10.168;2022-08-06T07:51:58;1.50;;;1.40;;
9115;SDS011;4593;53.652;10.168;2022-08-06T07:54:25;3.80;;;1.40;;
9115;SDS011;4593;53.652;10.168;2022-08-06T07:56:55;3.00;;;1.30;;
9115;SDS011;4593;53.652;10.168;2022-08-06T07:59:21;1.10;;;1.10;;
9115;SDS011;4593;53.652;10.168;2022-08-06T08:01:48;1.43;;;1.20;;
9115;SDS011;4593;53.652;10.168;2022-08-06T08:04:14;3.03;;;1.50;;
9115;SDS011;4593;53.652;10.168;2022-08-06T08:06:59;2.43;;;1.30;;
9115;SDS011;4593;53.652;10.168;2022-08-06T08:09:27;1.50;;;1.33;;
9115;SDS011;4593;53.652;10.168;2022-08-06T08:11:54;3.40;;;1.53;;
9115;SDS011;4593;53.652;10.168;2022-08-06T08:14:22;2.40;;;1.40;;
9115;SDS011;4593;53.652;10.168;2022-08-06T08:16:49;3.03;;;1.30;;
9115;SDS011;4593;53.652;10.168;2022-08-06T08:19:33;1.20;;;1.20;;
9115;SDS011;4593;53.652;10.168;2022-08-06T08:22:03;2.47;;;1.40;;
9115;SDS011;4593;53.652;10.168;2022-08-06T08:24:30;1.23;;;1.23;;
9115;SDS011;4593;53.652;10.168;2022-08-06T08:26:57;1.37;;;1.33;;
9115;SDS011;4593;53.652;10.168;2022-08-06T08:29:24;2.37;;;1.30;;
9115;SDS011;4593;53.652;10.168;2022-08-06T08:31:50;1.30;;;1.30;;
9115;SDS011;4593;53.652;10.168;2022-08-06T08:34:16;1.50;;;1.40;;
9115;SDS011;4593;53.652;10.168;2022-08-06T08:36:42;2.87;;;1.37;;
9115;SDS011;4593;53.652;10.168;2022-08-06T08:39:08;2.37;;;1.60;;
9115;SDS011;4593;53.652;10.168;2022-08-06T08:41:51;2.40;;;1.50;;
9115;SDS011;4593;53.652;10.168;2022-08-06T08:44:22;1.60;;;1.50;;
9115;SDS011;4593;53.652;10.168;2022-08-06T08:46:49;1.37;;;1.27;;
9115;SDS011;4593;53.652;10.168;2022-08-06T08:49:20;1.30;;;1.30;;
9115;SDS011;4593;53.652;10.168;2022-08-06T08:51:46;3.33;;;1.30;;
9115;SDS011;4593;53.652;10.168;2022-08-06T08:54:13;3.43;;;1.43;;
9115;SDS011;4593;53.652;10.168;2022-08-06T08:56:41;2.90;;;1.23;;
9115;SDS011;4593;53.652;10.168;2022-08-06T08:59:08;2.37;;;1.40;;
9115;SDS011;4593;53.652;10.168;2022-08-06T09:01:34;1.10;;;1.10;;
9115;SDS011;4593;53.652;10.168;2022-08-06T09:04:01;1.33;;;1.30;;
9115;SDS011;4593;53.652;10.168;2022-08-06T09:06:28;1.17;;;1.17;;
9115;SDS011;4593;53.652;10.168;2022-08-06T09:08:53;1.73;;;1.50;;
9115;SDS011;4593;53.652;10.168;2022-08-06T09:11:21;2.87;;;1.27;;
9115;SDS011;4593;53.652;10.168;2022-08-06T09:13:47;3.00;;;1.50;;
9115;SDS011;4593;53.652;10.168;2022-08-06T09:16:13;1.30;;;1.20;;
9115;SDS011;4593;53.652;10.168;2022-08-06T09:18:39;1.20;;;1.20;;
9115;SDS011;4593;53.652;10.168;2022-08-06T09:21:05;3.43;;;1.40;;
9115;SDS011;4593;53.652;10.168;2022-08-06T09:23:31;4.03;;;1.30;;
9115;SDS011;4593;53.652;10.168;2022-08-06T09:25:57;1.50;;;1.40;;
9115;SDS011;4593;53.652;10.168;2022-08-06T09:30:59;1.20;;;1.17;;
9115;SDS011;4593;53.652;10.168;2022-08-06T09:33:35;2.37;;;1.20;;
9115;SDS011;4593;53.652;10.168;2022-08-06T09:36:12;1.40;;;1.30;;
9115;SDS011;4593;53.652;10.168;2022-08-06T09:38:50;1.50;;;1.40;;
9115;SDS011;4593;53.652;10.168;2022-08-06T09:41:17;1.33;;;1.23;;
9115;SDS011;4593;53.652;10.168;2022-08-06T09:43:44;2.67;;;1.20;;
9115;SDS011;4593;53.652;10.168;2022-08-06T09:46:11;2.97;;;1.33;;
9115;SDS011;4593;53.652;10.168;2022-08-06T09:48:39;1.40;;;1.30;;
9115;SDS011;4593;53.652;10.168;2022-08-06T09:51:21;1.37;;;1.23;;
9115;SDS011;4593;53.652;10.168;2022-08-06T09:54:06;1.27;;;1.20;;
9115;SDS011;4593;53.652;10.168;2022-08-06T09:56:34;2.17;;;1.20;;
9115;SDS011;4593;53.652;10.168;2022-08-06T09:59:02;1.63;;;1.23;;
9115;SDS011;4593;53.652;10.168;2022-08-06T10:01:29;1.90;;;1.30;;
9115;SDS011;4593;53.652;10.168;2022-08-06T10:03:56;1.30;;;1.30;;
9115;SDS011;4593;53.652;10.168;2022-08-06T10:06:22;1.70;;;1.30;;
9115;SDS011;4593;53.652;10.168;2022-08-06T10:11:37;1.43;;;1.33;;
9115;SDS011;4593;53.652;10.168;2022-08-06T10:17:15;1.20;;;1.20;;
9115;SDS011;4593;53.652;10.168;2022-08-06T10:19:42;2.93;;;1.30;;
9115;SDS011;4593;53.652;10.168;2022-08-06T10:22:10;1.60;;;1.50;;
9115;SDS011;4593;53.652;10.168;2022-08-06T10:24:38;1.50;;;1.40;;
9115;SDS011;4593;53.652;10.168;2022-08-06T10:27:06;1.50;;;1.40;;
9115;SDS011;4593;53.652;10.168;2022-08-06T10:29:35;3.60;;;1.47;;
9115;SDS011;4593;53.652;10.168;2022-08-06T10:32:02;1.90;;;1.40;;
9115;SDS011;4593;53.652;10.168;2022-08-06T10:34:29;2.90;;;1.40;;
9115;SDS011;4593;53.652;10.168;2022-08-06T10:37:03;1.50;;;1.40;;
9115;SDS011;4593;53.652;10.168;2022-08-06T10:39:33;1.50;;;1.40;;
9115;SDS011;4593;53.652;10.168;2022-08-06T10:42:01;3.53;;;1.53;;
9115;SDS011;4593;53.652;10.168;2022-08-06T10:44:28;3.03;;;1.30;;
9115;SDS011;4593;53.652;10.168;2022-08-06T10:46:54;2.30;;;1.57;;
9115;SDS011;4593;53.652;10.168;2022-08-06T10:49:20;1.70;;;1.60;;
9115;SDS011;4593;53.652;10.168;2022-08-06T10:51:49;3.90;;;1.50;;
9115;SDS011;4593;53.652;10.168;2022-08-06T10:54:15;4.40;;;1.60;;
9115;SDS011;4593;53.652;10.168;2022-08-06T10:56:41;2.80;;;1.60;;
9115;SDS011;4593;53.652;10.168;2022-08-06T10:59:11;2.07;;;1.70;;
9115;SDS011;4593;53.652;10.168;2022-08-06T11:01:42;2.37;;;1.70;;
9115;SDS011;4593;53.652;10.168;2022-08-06T11:12:39;5.63;;;1.87;;
9115;SDS011;4593;53.652;10.168;2022-08-06T11:15:07;4.97;;;2.00;;
9115;SDS011;4593;53.652;10.168;2022-08-06T11:17:47;2.10;;;1.80;;
9115;SDS011;4593;53.652;10.168;2022-08-06T11:23:43;2.70;;;2.17;;
9115;SDS011;4593;53.652;10.168;2022-08-06T11:25:45;2.63;;;2.30;;
9115;SDS011;4593;53.652;10.168;2022-08-06T11:28:12;4.07;;;2.40;;
9115;SDS011;4593;53.652;10.168;2022-08-06T11:30:42;4.50;;;2.60;;
9115;SDS011;4593;53.652;10.168;2022-08-06T11:33:09;4.43;;;2.27;;
9115;SDS011;4593;53.652;10.168;2022-08-06T11:38:03;3.13;;;2.43;;
9115;SDS011;4593;53.652;10.168;2022-08-06T11:43:40;4.63;;;2.30;;
9115;SDS011;4593;53.652;10.168;2022-08-06T11:51:37;3.27;;;2.13;;
9115;SDS011;4593;53.652;10.168;2022-08-06T11:59:22;2.87;;;2.60;;
9115;SDS011;4593;53.652;10.168;2022-08-06T12:01:48;3.70;;;2.53;;
9115;SDS011;4593;53.652;10.168;2022-08-06T12:09:44;3.20;;;2.50;;
9115;SDS011;4593;53.652;10.168;2022-08-06T12:14:49;3.17;;;2.30;;
9115;SDS011;4593;53.652;10.168;2022-08-06T12:17:17;2.97;;;2.40;;
9115;SDS011;4593;53.652;10.168;2022-08-06T12:19:44;4.73;;;2.43;;
9115;SDS011;4593;53.652;10.168;2022-08-06T12:22:14;2.90;;;2.60;;
9115;SDS011;4593;53.652;10.168;2022-08-06T12:24:44;2.50;;;2.20;;
9115;SDS011;4593;53.652;10.168;2022-08-06T12:27:13;2.77;;;2.47;;
9115;SDS011;4593;53.652;10.168;2022-08-06T12:29:40;3.57;;;2.50;;
9115;SDS011;4593;53.652;10.168;2022-08-06T12:32:19;4.83;;;2.53;;
9115;SDS011;4593;53.652;10.168;2022-08-06T12:34:48;3.57;;;2.50;;
9115;SDS011;4593;53.652;10.168;2022-08-06T12:37:15;2.63;;;2.40;;
9115;SDS011;4593;53.652;10.168;2022-08-06T12:39:41;3.50;;;2.30;;
9115;SDS011;4593;53.652;10.168;2022-08-06T12:42:27;3.53;;;2.47;;
9115;SDS011;4593;53.652;10.168;2022-08-06T12:44:53;3.47;;;2.23;;
9115;SDS011;4593;53.652;10.168;2022-08-06T12:47:20;3.73;;;2.73;;
9115;SDS011;4593;53.652;10.168;2022-08-06T12:49:47;3.40;;;2.67;;
9115;SDS011;4593;53.652;10.168;2022-08-06T12:52:13;3.53;;;2.80;;
9115;SDS011;4593;53.652;10.168;2022-08-06T12:54:42;4.30;;;2.63;;
9115;SDS011;4593;53.652;10.168;2022-08-06T12:57:08;3.70;;;2.90;;
9115;SDS011;4593;53.652;10.168;2022-08-06T12:59:44;2.97;;;2.67;;
9115;SDS011;4593;53.652;10.168;2022-08-06T13:02:10;7.10;;;2.87;;
9115;SDS011;4593;53.652;10.168;2022-08-06T13:04:37;4.57;;;2.80;;
9115;SDS011;4593;53.652;10.168;2022-08-06T13:07:03;3.90;;;2.53;;
9115;SDS011;4593;53.652;10.168;2022-08-06T13:09:32;3.30;;;2.73;;
9115;SDS011;4593;53.652;10.168;2022-08-06T13:11:59;3.17;;;2.50;;
9115;SDS011;4593;53.652;10.168;2022-08-06T13:14:47;2.80;;;2.50;;
9115;SDS011;4593;53.652;10.168;2022-08-06T13:17:18;3.43;;;2.80;;
9115;SDS011;4593;53.652;10.168;2022-08-06T13:19:52;3.57;;;2.97;;
9115;SDS011;4593;53.652;10.168;2022-08-06T13:22:19;4.60;;;2.87;;
9115;SDS011;4593;53.652;10.168;2022-08-06T13:24:45;2.77;;;2.50;;
9115;SDS011;4593;53.652;10.168;2022-08-06T13:27:11;3.77;;;2.93;;
9115;SDS011;4593;53.652;10.168;2022-08-06T13:29:37;4.80;;;3.00;;
9115;SDS011;4593;53.652;10.168;2022-08-06T13:32:05;4.73;;;3.30;;
9115;SDS011;4593;53.652;10.168;2022-08-06T13:34:48;4.40;;;3.13;;
9115;SDS011;4593;53.652;10.168;2022-08-06T13:37:16;3.80;;;3.23;;
9115;SDS011;4593;53.652;10.168;2022-08-06T13:39:49;5.57;;;3.43;;
9115;SDS011;4593;53.652;10.168;2022-08-06T13:42:16;3.27;;;2.97;;
9115;SDS011;4593;53.652;10.168;2022-08-06T13:44:45;3.67;;;2.70;;
9115;SDS011;4593;53.652;10.168;2022-08-06T13:47:12;3.03;;;2.63;;
9115;SDS011;4593;53.652;10.168;2022-08-06T13:49:41;5.53;;;3.00;;
9115;SDS011;4593;53.652;10.168;2022-08-06T13:52:08;3.50;;;3.00;;
9115;SDS011;4593;53.652;10.168;2022-08-06T13:54:34;4.00;;;3.20;;
9115;SDS011;4593;53.652;10.168;2022-08-06T13:57:00;4.80;;;3.13;;
9115;SDS011;4593;53.652;10.168;2022-08-06T13:59:27;3.77;;;3.10;;
9115;SDS011;4593;53.652;10.168;2022-08-06T14:01:53;5.77;;;3.27;;
9115;SDS011;4593;53.652;10.168;2022-08-06T14:04:21;6.80;;;3.73;;
9115;SDS011;4593;53.652;10.168;2022-08-06T14:06:50;6.27;;;3.33;;
9115;SDS011;4593;53.652;10.168;2022-08-06T14:09:18;5.67;;;3.30;;
9115;SDS011;4593;53.652;10.168;2022-08-06T14:11:46;7.13;;;3.30;;
9115;SDS011;4593;53.652;10.168;2022-08-06T14:14:12;4.10;;;3.40;;
9115;SDS011;4593;53.652;10.168;2022-08-06T14:16:38;4.70;;;3.23;;
9115;SDS011;4593;53.652;10.168;2022-08-06T14:19:04;3.93;;;3.23;;
9115;SDS011;4593;53.652;10.168;2022-08-06T14:21:30;4.33;;;3.47;;
9115;SDS011;4593;53.652;10.168;2022-08-06T14:23:56;3.73;;;3.10;;
9115;SDS011;4593;53.652;10.168;2022-08-06T14:26:22;3.27;;;2.60;;
9115;SDS011;4593;53.652;10.168;2022-08-06T14:28:48;4.83;;;3.80;;
9115;SDS011;4593;53.652;10.168;2022-08-06T14:31:17;8.30;;;3.30;;
9115;SDS011;4593;53.652;10.168;2022-08-06T14:33:43;4.50;;;3.30;;
9115;SDS011;4593;53.652;10.168;2022-08-06T14:36:09;5.60;;;3.83;;
9115;SDS011;4593;53.652;10.168;2022-08-06T14:38:35;5.23;;;3.70;;
9115;SDS011;4593;53.652;10.168;2022-08-06T14:41:01;8.87;;;4.10;;
9115;SDS011;4593;53.652;10.168;2022-08-06T14:43:46;4.97;;;3.83;;
9115;SDS011;4593;53.652;10.168;2022-08-06T14:46:30;6.23;;;4.03;;
9115;SDS011;4593;53.652;10.168;2022-08-06T14:48:59;6.47;;;3.87;;
9115;SDS011;4593;53.652;10.168;2022-08-06T14:51:26;5.00;;;4.03;;
9115;SDS011;4593;53.652;10.168;2022-08-06T14:53:52;7.90;;;4.07;;
9115;SDS011;4593;53.652;10.168;2022-08-06T14:56:18;8.47;;;4.43;;
9115;SDS011;4593;53.652;10.168;2022-08-06T14:58:44;6.50;;;4.07;;
9115;SDS011;4593;53.652;10.168;2022-08-06T15:01:11;7.10;;;4.43;;
9115;SDS011;4593;53.652;10.168;2022-08-06T15:03:36;5.40;;;3.87;;
9115;SDS011;4593;53.652;10.168;2022-08-06T15:06:02;6.67;;;3.73;;
9115;SDS011;4593;53.652;10.168;2022-08-06T15:08:28;6.73;;;3.90;;
9115;SDS011;4593;53.652;10.168;2022-08-06T15:10:54;10.17;;;3.90;;
9115;SDS011;4593;53.652;10.168;2022-08-06T15:13:20;9.13;;;4.37;;
9115;SDS011;4593;53.652;10.168;2022-08-06T15:15:46;5.13;;;3.80;;
9115;SDS011;4593;53.652;10.168;2022-08-06T15:18:12;4.63;;;3.90;;
9115;SDS011;4593;53.652;10.168;2022-08-06T15:20:38;6.90;;;4.20;;
9115;SDS011;4593;53.652;10.168;2022-08-06T15:23:04;5.67;;;4.17;;
9115;SDS011;4593;53.652;10.168;2022-08-06T15:25:30;6.03;;;3.87;;
9115;SDS011;4593;53.652;10.168;2022-08-06T15:27:56;6.10;;;4.00;;
9115;SDS011;4593;53.652;10.168;2022-08-06T15:30:22;8.83;;;4.37;;
9115;SDS011;4593;53.652;10.168;2022-08-06T15:32:48;8.00;;;4.20;;
9115;SDS011;4593;53.652;10.168;2022-08-06T15:35:14;5.63;;;4.00;;
9115;SDS011;4593;53.652;10.168;2022-08-06T15:37:40;5.00;;;4.00;;
9115;SDS011;4593;53.652;10.168;2022-08-06T15:40:06;7.97;;;3.80;;
9115;SDS011;4593;53.652;10.168;2022-08-06T15:42:34;4.10;;;3.60;;
9115;SDS011;4593;53.652;10.168;2022-08-06T15:45:00;3.93;;;3.23;;
9115;SDS011;4593;53.652;10.168;2022-08-06T15:47:26;5.70;;;3.53;;
9115;SDS011;4593;53.652;10.168;2022-08-06T15:49:52;4.27;;;3.80;;
9115;SDS011;4593;53.652;10.168;2022-08-06T15:52:18;4.60;;;3.63;;
9115;SDS011;4593;53.652;10.168;2022-08-06T15:54:44;5.53;;;4.13;;
9115;SDS011;4593;53.652;10.168;2022-08-06T15:57:10;5.50;;;3.30;;
9115;SDS011;4593;53.652;10.168;2022-08-06T15:59:37;9.50;;;3.73;;
9115;SDS011;4593;53.652;10.168;2022-08-06T16:02:03;6.67;;;4.13;;
9115;SDS011;4593;53.652;10.168;2022-08-06T16:04:29;5.07;;;3.57;;
9115;SDS011;4593;53.652;10.168;2022-08-06T16:06:55;5.87;;;3.37;;
9115;SDS011;4593;53.652;10.168;2022-08-06T16:09:21;6.13;;;3.77;;
9115;SDS011;4593;53.652;10.168;2022-08-06T16:11:47;4.23;;;3.57;;
9115;SDS011;4593;53.652;10.168;2022-08-06T16:14:13;6.27;;;3.80;;
9115;SDS011;4593;53.652;10.168;2022-08-06T16:16:39;6.80;;;4.10;;
9115;SDS011;4593;53.652;10.168;2022-08-06T16:19:05;6.97;;;4.40;;
9115;SDS011;4593;53.652;10.168;2022-08-06T16:21:31;4.00;;;3.60;;
9115;SDS011;4593;53.652;10.168;2022-08-06T16:23:58;4.70;;;3.73;;
9115;SDS011;4593;53.652;10.168;2022-08-06T16:26:26;6.77;;;4.20;;